Time;durP1;ratioP1;P1;durP2;ratioP2;P2;SDS_P1;SDS_P2;PMS_P1;PMS_P2;Temp;Humidity;BMP_temperature;BMP_pressure;BME280_temperature;BME280_humidity;BME280_pressure;Samples;Min_cycle;Max_cycle;Signal;HPM_P1;HPM_P2
2021/03/24 00:01:22;;;;;;;24.27;12.25;;;7.20;91.70;;;;;;4977524;28;20027;-80
2021/03/24 00:03:47;;;;;;;26.65;11.57;;;7.20;91.70;;;;;;4960166;28;20557;-80
2021/03/24 00:06:13;;;;;;;22.88;10.73;;;7.20;91.60;;;;;;4977517;28;20048;-80
2021/03/24 00:08:39;;;;;;;22.98;11.15;;;7.20;91.60;;;;;;4977193;28;20089;-80
2021/03/24 00:11:07;;;;;;;22.05;11.30;;;7.20;91.60;;;;;;4977307;28;20027;-80
2021/03/24 00:13:33;;;;;;;23.60;11.23;;;7.20;91.60;;;;;;4977328;28;20026;-80
2021/03/24 00:15:59;;;;;;;25.48;11.30;;;7.10;91.70;;;;;;4977218;28;20077;-80
2021/03/24 00:18:25;;;;;;;24.60;10.70;;;7.20;91.70;;;;;;4977087;28;20047;-80
2021/03/24 00:20:51;;;;;;;26.48;11.88;;;7.20;91.70;;;;;;4976735;28;20472;-80
2021/03/24 00:23:17;;;;;;;26.10;11.95;;;7.10;91.70;;;;;;4977190;28;20117;-80
2021/03/24 00:25:43;;;;;;;24.73;11.73;;;7.20;91.70;;;;;;4977328;28;20119;-80
2021/03/24 00:28:10;;;;;;;26.35;12.55;;;7.20;91.50;;;;;;4977303;28;20035;-80
2021/03/24 00:30:39;;;;;;;26.55;12.65;;;7.10;91.40;;;;;;4982435;28;20019;-80
2021/03/24 00:33:05;;;;;;;28.60;12.77;;;7.10;91.60;;;;;;4981423;28;20109;-80
2021/03/24 00:35:31;;;;;;;28.52;12.32;;;7.10;91.70;;;;;;4976801;28;20034;-80
2021/03/24 00:37:57;;;;;;;25.67;12.23;;;7.10;91.70;;;;;;4976833;28;20369;-80
2021/03/24 00:40:45;;;;;;;23.55;10.73;;;7.10;91.70;;;;;;4959546;28;20022;-79
2021/03/24 00:43:11;;;;;;;24.25;11.85;;;7.10;91.80;;;;;;4976725;28;20082;-79
2021/03/24 00:45:38;;;;;;;26.42;12.18;;;7.10;91.60;;;;;;4979749;28;20042;-79
2021/03/24 00:48:05;;;;;;;23.60;11.52;;;7.10;91.50;;;;;;4995849;28;20026;-79
2021/03/24 00:50:33;;;;;;;27.42;12.02;;;7.00;91.50;;;;;;4995985;28;20054;-79
2021/03/24 00:52:59;;;;;;;28.25;13.65;;;7.00;91.50;;;;;;4995974;28;20026;-79
2021/03/24 00:55:25;;;;;;;25.30;11.15;;;7.00;91.60;;;;;;4979226;28;20101;-79
2021/03/24 00:57:50;;;;;;;25.58;12.07;;;7.00;91.60;;;;;;4996262;28;20042;-79
2021/03/24 01:00:18;;;;;;;27.83;11.90;;;7.00;91.60;;;;;;4995839;28;20454;-79
2021/03/24 01:02:44;;;;;;;30.00;12.23;;;7.00;91.50;;;;;;4995934;28;20385;-79
2021/03/24 01:05:13;;;;;;;23.45;11.82;;;6.90;91.60;;;;;;4996253;28;20022;-79
2021/03/24 01:07:41;;;;;;;22.85;10.73;;;7.00;91.70;;;;;;4995676;28;20427;-79
2021/03/24 01:10:11;;;;;;;25.50;12.40;;;6.90;91.60;;;;;;4995505;28;20050;-78
2021/03/24 01:12:37;;;;;;;26.67;12.23;;;7.00;91.70;;;;;;4995686;28;20030;-78
2021/03/24 01:15:04;;;;;;;26.60;13.30;;;6.90;91.70;;;;;;4995717;28;20434;-78
2021/03/24 01:17:29;;;;;;;23.95;11.63;;;6.90;91.60;;;;;;4995462;28;20039;-78
2021/03/24 01:19:55;;;;;;;27.88;12.65;;;6.90;91.50;;;;;;4995641;28;20026;-78
2021/03/24 01:22:20;;;;;;;25.95;12.10;;;6.90;91.60;;;;;;4995580;28;20065;-78
2021/03/24 01:24:47;;;;;;;26.85;12.35;;;6.90;91.70;;;;;;4995288;28;20030;-79
2021/03/24 01:27:12;;;;;;;26.13;12.30;;;6.90;91.50;;;;;;4995386;28;20498;-79
2021/03/24 01:29:38;;;;;;;24.98;12.38;;;6.80;91.60;;;;;;4995415;28;20133;-79
2021/03/24 01:32:04;;;;;;;27.92;12.07;;;6.90;91.70;;;;;;4977011;28;20038;-80
2021/03/24 01:34:29;;;;;;;27.05;12.10;;;6.80;91.50;;;;;;4995232;28;20026;-79
2021/03/24 01:36:55;;;;;;;24.80;11.32;;;6.80;91.60;;;;;;4977672;28;20038;-79
2021/03/24 01:39:20;;;;;;;25.80;12.45;;;6.80;91.60;;;;;;4977784;28;20137;-78
2021/03/24 01:41:46;;;;;;;25.70;11.88;;;6.80;91.70;;;;;;4994820;28;20026;-78
2021/03/24 01:44:11;;;;;;;24.33;10.82;;;6.80;91.90;;;;;;4995143;28;20153;-78
2021/03/24 01:46:41;;;;;;;25.73;11.80;;;6.80;91.70;;;;;;4984090;28;20019;-79
2021/03/24 01:49:27;;;;;;;29.30;12.75;;;6.80;91.60;;;;;;4975320;28;20043;-79
2021/03/24 01:51:59;;;;;;;25.20;11.85;;;6.80;91.60;;;;;;4975503;28;20027;-79
2021/03/24 01:54:52;;;;;;;24.23;10.50;;;6.80;91.70;;;;;;4975264;28;20031;-79
2021/03/24 01:57:22;;;;;;;27.25;11.02;;;6.80;91.70;;;;;;4955534;28;20101;-78
2021/03/24 01:59:50;;;;;;;27.77;12.80;;;6.80;91.60;;;;;;4975266;28;20118;-78
2021/03/24 02:02:19;;;;;;;26.17;11.57;;;6.70;91.50;;;;;;4957961;28;20023;-79
2021/03/24 02:04:48;;;;;;;25.20;11.90;;;6.70;91.60;;;;;;4975569;28;20038;-79
2021/03/24 02:07:30;;;;;;;25.13;11.00;;;6.70;91.70;;;;;;4975045;28;20023;-78
2021/03/24 02:10:20;;;;;;;25.08;12.07;;;6.70;91.90;;;;;;4975179;28;20031;-79
2021/03/24 02:12:53;;;;;;;24.88;11.82;;;6.80;91.90;;;;;;4957820;28;20070;-79
2021/03/24 02:15:32;;;;;;;26.35;12.70;;;6.80;91.80;;;;;;4974891;28;20031;-78
2021/03/24 02:18:00;;;;;;;29.65;12.55;;;6.70;91.50;;;;;;4974941;28;20031;-78
2021/03/24 02:20:36;;;;;;;26.90;11.13;;;6.70;91.70;;;;;;4975061;28;20023;-79
2021/03/24 02:23:32;;;;;;;22.80;11.10;;;6.70;91.70;;;;;;4975064;28;20383;-79
2021/03/24 02:26:16;;;;;;;25.73;11.55;;;6.70;91.70;;;;;;4974714;28;20023;-79
2021/03/24 02:28:45;;;;;;;25.50;11.82;;;6.70;91.70;;;;;;4974871;28;20018;-79
2021/03/24 02:31:14;;;;;;;24.42;10.75;;;6.70;91.60;;;;;;4974939;28;20411;-79
2021/03/24 02:33:42;;;;;;;27.73;12.07;;;6.70;91.80;;;;;;4974774;28;20566;-79
2021/03/24 02:36:14;;;;;;;25.95;12.38;;;6.70;91.90;;;;;;4974893;28;20471;-79
2021/03/24 02:38:42;;;;;;;25.40;11.05;;;6.80;91.80;;;;;;4974728;28;20037;-79
2021/03/24 02:41:09;;;;;;;24.65;11.02;;;6.70;91.70;;;;;;4974509;28;20031;-79
2021/03/24 02:43:35;;;;;;;23.48;11.40;;;6.70;91.60;;;;;;4974820;28;20023;-79
2021/03/24 02:46:04;;;;;;;25.00;11.10;;;6.70;91.80;;;;;;4980661;28;20410;-79
2021/03/24 02:48:33;;;;;;;25.70;12.32;;;6.70;91.80;;;;;;4993993;28;20023;-79
2021/03/24 02:51:02;;;;;;;24.70;11.60;;;6.70;91.80;;;;;;4976526;28;20039;-79
2021/03/24 02:53:31;;;;;;;23.90;11.70;;;6.70;91.70;;;;;;4994118;28;20045;-79
2021/03/24 02:56:01;;;;;;;28.27;12.15;;;6.70;91.80;;;;;;4993989;28;20467;-79
2021/03/24 02:58:27;;;;;;;24.83;11.57;;;6.70;91.70;;;;;;4994007;28;20060;-79
2021/03/24 03:00:53;;;;;;;24.70;11.68;;;6.70;91.90;;;;;;4976392;28;20471;-79
2021/03/24 03:03:29;;;;;;;25.30;11.25;;;6.60;91.60;;;;;;4993956;28;20026;-79
2021/03/24 03:05:57;;;;;;;23.48;11.27;;;6.60;91.60;;;;;;4976471;28;20034;-79
2021/03/24 03:08:29;;;;;;;27.58;11.07;;;6.60;91.60;;;;;;4994221;28;20382;-80
2021/03/24 03:10:58;;;;;;;25.92;11.77;;;6.50;91.50;;;;;;4981627;28;20117;-80
2021/03/24 03:13:36;;;;;;;23.33;10.85;;;6.50;91.40;;;;;;4999058;28;20386;-79
2021/03/24 03:16:07;;;;;;;25.77;11.85;;;6.40;91.40;;;;;;4994080;28;20077;-78
2021/03/24 03:18:40;;;;;;;23.10;11.02;;;6.30;91.30;;;;;;4994070;28;20422;-78
2021/03/24 03:21:14;;;;;;;27.63;11.00;;;6.20;91.30;;;;;;4994395;28;20037;-78
2021/03/24 03:23:41;;;;;;;30.07;12.60;;;6.10;91.10;;;;;;4994527;28;20041;-78
2021/03/24 03:26:17;;;;;;;23.67;11.63;;;6.00;91.00;;;;;;4994132;28;20030;-78
2021/03/24 03:28:48;;;;;;;24.90;11.02;;;5.90;91.10;;;;;;4994380;28;20029;-78
2021/03/24 03:31:22;;;;;;;23.70;11.45;;;5.80;91.20;;;;;;4994005;28;20026;-79
2021/03/24 03:33:53;;;;;;;23.38;11.55;;;5.80;91.30;;;;;;4993793;28;20524;-79
2021/03/24 03:36:20;;;;;;;26.58;11.50;;;5.70;91.30;;;;;;4994025;28;20034;-79
2021/03/24 03:38:48;;;;;;;25.55;11.35;;;5.70;91.40;;;;;;4993935;28;20077;-79
2021/03/24 03:41:15;;;;;;;24.88;10.48;;;5.70;91.50;;;;;;4993848;28;20026;-79
2021/03/24 03:43:43;;;;;;;27.38;11.70;;;5.70;91.50;;;;;;4993540;28;20080;-78
2021/03/24 03:46:13;;;;;;;24.10;10.85;;;5.70;91.50;;;;;;4986489;28;20026;-78
2021/03/24 03:48:38;;;;;;;26.25;11.45;;;5.70;91.50;;;;;;4973974;28;20026;-78
2021/03/24 03:51:07;;;;;;;27.60;11.82;;;5.70;91.60;;;;;;4974257;28;20113;-78
2021/03/24 03:53:55;;;;;;;25.83;10.45;;;5.80;91.60;;;;;;4974213;28;20387;-78
2021/03/24 03:56:32;;;;;;;24.88;11.05;;;5.70;91.50;;;;;;4977191;28;20027;-78
2021/03/24 03:59:10;;;;;;;22.10;11.23;;;5.70;91.50;;;;;;4977578;28;20038;-78
2021/03/24 04:01:40;;;;;;;24.65;12.02;;;5.70;91.50;;;;;;4977558;28;20031;-78
2021/03/24 04:04:33;;;;;;;25.08;11.50;;;5.70;91.50;;;;;;4977518;28;20027;-78
2021/03/24 04:07:05;;;;;;;25.58;10.82;;;5.70;91.50;;;;;;4960024;28;20379;-78
2021/03/24 04:09:33;;;;;;;23.65;10.88;;;5.70;91.60;;;;;;4977358;28;20042;-78
2021/03/24 04:11:59;;;;;;;21.92;10.18;;;5.70;91.60;;;;;;4977345;28;20038;-78
2021/03/24 04:14:28;;;;;;;27.67;11.02;;;5.60;91.50;;;;;;4977343;28;20157;-78
2021/03/24 04:16:54;;;;;;;23.33;10.68;;;5.70;91.60;;;;;;4977171;28;20101;-78
2021/03/24 04:19:43;;;;;;;22.50;9.82;;;5.70;91.70;;;;;;4977119;28;20502;-79
2021/03/24 04:22:10;;;;;;;24.58;11.20;;;5.70;91.60;;;;;;4976212;28;20043;-79
2021/03/24 04:24:43;;;;;;;24.35;10.98;;;5.70;91.60;;;;;;4977178;28;20395;-79
2021/03/24 04:27:13;;;;;;;23.17;10.98;;;5.70;91.70;;;;;;4977019;28;20102;-79
2021/03/24 04:30:05;;;;;;;22.33;10.55;;;5.70;91.70;;;;;;4976970;28;20026;-79
2021/03/24 04:32:30;;;;;;;22.88;9.90;;;5.70;91.70;;;;;;4976886;28;20475;-79
2021/03/24 04:34:56;;;;;;;25.98;11.23;;;5.70;91.70;;;;;;4976705;28;20035;-79
2021/03/24 04:37:49;;;;;;;28.25;11.82;;;5.70;91.70;;;;;;4976637;28;20038;-79
2021/03/24 04:40:37;;;;;;;24.27;9.55;;;5.70;91.60;;;;;;4976821;28;20117;-79
2021/03/24 04:43:11;;;;;;;21.80;9.88;;;5.70;91.60;;;;;;4976717;28;20037;-79
2021/03/24 04:45:59;;;;;;;23.77;11.02;;;5.60;91.60;;;;;;4979364;28;20130;-80
2021/03/24 04:48:45;;;;;;;26.15;10.10;;;5.60;91.50;;;;;;4996160;28;20030;-79
2021/03/24 04:51:16;;;;;;;23.48;10.32;;;5.60;91.50;;;;;;4996020;28;20133;-79
2021/03/24 04:53:47;;;;;;;23.85;10.23;;;5.60;91.50;;;;;;4996028;28;20027;-79
2021/03/24 04:56:17;;;;;;;23.20;9.98;;;5.60;91.60;;;;;;4995945;28;20026;-79
2021/03/24 04:58:50;;;;;;;24.00;10.95;;;5.50;91.50;;;;;;4996034;28;20042;-79
2021/03/24 05:01:45;;;;;;;23.25;10.90;;;5.50;91.50;;;;;;4995951;28;20383;-80
2021/03/24 05:04:32;;;;;;;26.92;9.82;;;5.50;91.60;;;;;;4966032;28;20081;-80
2021/03/24 05:07:06;;;;;;;23.98;10.43;;;5.50;91.50;;;;;;4993335;28;20029;-81
2021/03/24 05:09:32;;;;;;;22.02;10.15;;;5.40;91.50;;;;;;4995992;28;20039;-80
2021/03/24 05:12:05;;;;;;;21.42;10.45;;;5.40;91.60;;;;;;4995577;28;20538;-80
2021/03/24 05:14:35;;;;;;;24.48;9.63;;;5.40;91.70;;;;;;4995665;28;20105;-80
2021/03/24 05:17:14;;;;;;;23.42;10.63;;;5.50;91.70;;;;;;4995463;28;20461;-80
2021/03/24 05:19:40;;;;;;;22.08;10.82;;;5.50;91.70;;;;;;4995531;28;20113;-80
2021/03/24 05:22:29;;;;;;;23.98;10.70;;;5.50;91.60;;;;;;4995640;28;20030;-80
2021/03/24 05:24:58;;;;;;;22.38;10.40;;;5.50;91.70;;;;;;4995498;28;20114;-80
2021/03/24 05:27:46;;;;;;;21.30;9.07;;;5.50;91.70;;;;;;4995387;28;20019;-80
2021/03/24 05:30:22;;;;;;;23.40;10.32;;;5.60;91.70;;;;;;4995468;28;20486;-80
2021/03/24 05:32:52;;;;;;;23.90;9.35;;;5.50;92.00;;;;;;4995220;28;20030;-80
2021/03/24 05:35:42;;;;;;;29.02;10.77;;;5.50;91.60;;;;;;4995949;28;20022;-79
2021/03/24 05:38:16;;;;;;;34.65;16.13;;;5.50;91.70;;;;;;4995974;28;20038;-79
2021/03/24 05:41:03;;;;;;;26.88;12.30;;;5.50;91.60;;;;;;4995102;28;20022;-80
2021/03/24 05:43:54;;;;;;;25.35;11.02;;;5.50;91.60;;;;;;4978002;28;20112;-79
2021/03/24 05:46:23;;;;;;;22.08;9.70;;;5.50;91.70;;;;;;4986684;28;20038;-80
2021/03/24 05:49:19;;;;;;;20.40;9.15;;;5.50;91.70;;;;;;4975932;28;20364;-80
2021/03/24 05:52:27;;;;;;;22.92;9.65;;;5.50;91.60;;;;;;4966059;28;20031;-78
2021/03/24 05:55:08;;;;;;;20.35;8.93;;;5.50;91.70;;;;;;4977513;28;20031;-78
2021/03/24 05:57:59;;;;;;;20.90;9.05;;;5.50;91.60;;;;;;4976486;28;20038;-78
2021/03/24 06:00:56;;;;;;;19.42;8.95;;;5.60;91.70;;;;;;4975809;28;20022;-78
2021/03/24 06:03:44;;;;;;;25.38;10.43;;;5.50;91.60;;;;;;4975405;28;20030;-78
2021/03/24 06:06:31;;;;;;;19.65;9.52;;;5.50;91.60;;;;;;4975327;28;20074;-79
2021/03/24 06:09:29;;;;;;;25.08;10.43;;;5.50;91.60;;;;;;4975714;28;20026;-79
2021/03/24 06:12:36;;;;;;;27.25;10.38;;;5.50;91.70;;;;;;4943039;28;20053;-79
2021/03/24 06:15:16;;;;;;;19.90;10.18;;;5.50;91.60;;;;;;4942350;28;20126;-80
2021/03/24 06:17:58;;;;;;;21.70;9.80;;;5.50;91.60;;;;;;4974755;28;20039;-79
2021/03/24 06:20:58;;;;;;;22.50;10.65;;;5.50;91.70;;;;;;4975192;28;20026;-80
2021/03/24 06:23:42;;;;;;;23.48;10.77;;;5.60;91.70;;;;;;4976295;28;20456;-84
2021/03/24 06:26:33;;;;;;;27.98;11.10;;;5.60;91.80;;;;;;4958386;28;20018;-83
2021/03/24 06:29:24;;;;;;;27.20;11.13;;;5.60;91.70;;;;;;4975234;28;20027;-83
2021/03/24 06:32:11;;;;;;;28.77;12.82;;;5.60;91.70;;;;;;4975351;28;20027;-88
2021/03/24 06:34:39;;;;;;;23.95;11.27;;;5.60;91.50;;;;;;4957845;28;20487;-84
2021/03/24 06:37:17;;;;;;;23.75;11.02;;;5.50;91.40;;;;;;4958048;28;20566;-78
2021/03/24 06:40:24;;;;;;;24.10;12.27;;;5.50;91.40;;;;;;4975130;28;20033;-78
2021/03/24 06:43:30;;;;;;;27.35;10.95;;;5.40;91.50;;;;;;4966674;28;20035;-79
2021/03/24 06:46:38;;;;;;;26.00;11.65;;;5.50;91.60;;;;;;4980152;28;20470;-78
2021/03/24 06:49:28;;;;;;;23.67;10.68;;;5.50;91.60;;;;;;4973989;28;20084;-78
2021/03/24 06:52:13;;;;;;;22.08;10.40;;;5.50;91.60;;;;;;4994165;28;20077;-78
2021/03/24 06:55:10;;;;;;;24.90;11.02;;;5.50;91.60;;;;;;4993958;28;20363;-78
2021/03/24 06:57:53;;;;;;;25.10;10.95;;;5.50;91.60;;;;;;4993931;28;20479;-78
2021/03/24 07:00:40;;;;;;;25.98;11.48;;;5.50;91.60;;;;;;4994366;28;20034;-79
2021/03/24 07:03:49;;;;;;;23.85;10.73;;;5.50;91.60;;;;;;4993975;28;20529;-78
2021/03/24 07:06:49;;;;;;;24.30;11.05;;;5.50;91.70;;;;;;4993995;28;20043;-80
2021/03/24 07:09:29;;;;;;;29.42;11.38;;;5.60;91.70;;;;;;4976810;28;20034;-81
2021/03/24 07:12:01;;;;;;;29.45;11.43;;;5.60;91.80;;;;;;4994485;28;20037;-80
2021/03/24 07:14:49;;;;;;;21.58;10.13;;;5.70;91.80;;;;;;4976913;28;20081;-80
2021/03/24 07:17:25;;;;;;;22.50;9.85;;;5.70;91.80;;;;;;4993673;28;20073;-80
2021/03/24 07:20:12;;;;;;;25.83;11.00;;;5.80;91.90;;;;;;4994061;28;20133;-80
2021/03/24 07:23:06;;;;;;;22.15;9.90;;;5.80;91.90;;;;;;4993945;28;20089;-80
2021/03/24 07:25:57;;;;;;;24.25;10.15;;;5.80;91.90;;;;;;4993653;28;20487;-79
2021/03/24 07:28:35;;;;;;;27.10;10.68;;;5.90;92.00;;;;;;4993678;28;20023;-80
2021/03/24 07:31:40;;;;;;;22.60;9.75;;;6.00;92.00;;;;;;4997036;28;20034;-78
2021/03/24 07:34:29;;;;;;;21.77;10.90;;;6.10;92.00;;;;;;4967642;28;20046;-79
2021/03/24 07:37:04;;;;;;;20.42;9.63;;;6.10;92.00;;;;;;4997722;28;20474;-79
2021/03/24 07:40:18;;;;;;;21.05;8.65;;;6.20;92.10;;;;;;4997577;28;20030;-78
2021/03/24 07:43:10;;;;;;;20.95;9.73;;;6.30;92.10;;;;;;4980192;28;20375;-79
2021/03/24 07:46:09;;;;;;;22.67;10.85;;;6.40;92.20;;;;;;4993573;28;20034;-79
2021/03/24 07:48:54;;;;;;;22.10;9.98;;;6.50;92.10;;;;;;4977498;28;20114;-79
2021/03/24 07:51:22;;;;;;;21.33;9.75;;;6.60;92.10;;;;;;4977951;28;20038;-79
2021/03/24 07:54:29;;;;;;;20.30;8.85;;;6.60;92.10;;;;;;4977894;28;20106;-79
2021/03/24 07:57:06;;;;;;;26.20;9.88;;;6.70;92.20;;;;;;4977637;28;20151;-79
2021/03/24 07:59:55;;;;;;;17.40;8.80;;;6.90;92.30;;;;;;4977740;28;20022;-79
2021/03/24 08:02:57;;;;;;;18.20;8.23;;;6.90;92.20;;;;;;4977428;28;20057;-79
2021/03/24 08:05:50;;;;;;;20.08;8.38;;;7.00;92.50;;;;;;4977497;28;20105;-79
2021/03/24 08:08:44;;;;;;;19.25;8.95;;;7.10;92.20;;;;;;4977666;28;20538;-79
2021/03/24 08:11:33;;;;;;;19.58;9.25;;;7.20;92.30;;;;;;4977569;28;20097;-79
2021/03/24 08:14:33;;;;;;;18.05;8.70;;;7.30;92.30;;;;;;4960350;28;20023;-84
2021/03/24 08:17:29;;;;;;;18.63;9.27;;;7.30;92.10;;;;;;4977714;28;20030;-80
2021/03/24 08:19:58;;;;;;;17.55;8.00;;;7.40;92.10;;;;;;4977673;28;20102;-80
2021/03/24 08:22:44;;;;;;;19.58;9.07;;;7.40;92.30;;;;;;4977563;28;20030;-79
2021/03/24 08:25:41;;;;;;;17.45;8.45;;;7.50;92.20;;;;;;4977282;28;20098;-80
2021/03/24 08:28:24;;;;;;;21.17;10.05;;;7.60;92.10;;;;;;4977209;28;20038;-80
2021/03/24 08:31:18;;;;;;;20.33;9.70;;;7.60;92.30;;;;;;4979702;28;20023;-80
2021/03/24 08:34:14;;;;;;;21.55;8.95;;;7.70;92.20;;;;;;4983526;28;20395;-78
2021/03/24 08:36:42;;;;;;;24.60;10.90;;;7.80;92.30;;;;;;4978237;28;20019;-80
2021/03/24 08:39:33;;;;;;;20.10;8.95;;;7.90;92.30;;;;;;4977181;28;20039;-80
2021/03/24 08:42:49;;;;;;;17.15;8.20;;;8.00;92.30;;;;;;4976711;28;20408;-81
2021/03/24 08:45:27;;;;;;;17.50;8.60;;;8.10;92.20;;;;;;4933326;28;20491;-80
2021/03/24 08:48:05;;;;;;;19.50;8.77;;;8.10;92.10;;;;;;4976624;28;20027;-81
2021/03/24 08:50:40;;;;;;;20.00;8.85;;;8.20;92.20;;;;;;4976969;28;20368;-82
2021/03/24 08:53:44;;;;;;;18.50;8.88;;;8.20;92.20;;;;;;4976749;28;20383;-80
2021/03/24 08:56:22;;;;;;;17.20;7.85;;;8.30;92.30;;;;;;4976298;28;20534;-82
2021/03/24 08:59:25;;;;;;;20.17;9.45;;;8.40;92.20;;;;;;4976438;28;20030;-80
2021/03/24 09:02:00;;;;;;;18.55;8.50;;;8.50;92.20;;;;;;4954899;28;20035;-81
2021/03/24 09:05:00;;;;;;;19.05;8.75;;;8.50;92.20;;;;;;4975206;28;20034;-81
2021/03/24 09:07:38;;;;;;;23.95;8.15;;;8.60;92.30;;;;;;4976498;28;20525;-81
2021/03/24 09:10:37;;;;;;;18.63;9.02;;;8.70;92.40;;;;;;4976263;28;20023;-85
2021/03/24 09:13:30;;;;;;;17.42;8.75;;;8.80;92.20;;;;;;4976552;28;20022;-82
2021/03/24 09:16:27;;;;;;;20.30;9.95;;;8.90;92.30;;;;;;4976939;28;20030;-82
2021/03/24 09:18:56;;;;;;;17.70;8.43;;;9.00;92.30;;;;;;4976333;28;20038;-85
2021/03/24 09:21:56;;;;;;;18.55;8.32;;;9.10;92.30;;;;;;4975401;28;20037;-83
2021/03/24 09:25:00;;;;;;;16.50;7.22;;;9.20;92.30;;;;;;4935538;28;20478;-84
2021/03/24 09:28:02;;;;;;;17.52;8.35;;;9.30;92.30;;;;;;4976067;28;20050;-84
2021/03/24 09:31:02;;;;;;;15.25;7.60;;;9.30;92.50;;;;;;4976138;28;20030;-83
2021/03/24 09:33:28;;;;;;;17.63;6.90;;;9.50;92.50;;;;;;4975829;28;20037;-84
2021/03/24 09:36:15;;;;;;;18.80;9.38;;;9.60;92.50;;;;;;4975979;28;20027;-80
2021/03/24 09:38:43;;;;;;;19.17;8.88;;;9.70;92.50;;;;;;4975613;28;20085;-81
2021/03/24 09:41:18;;;;;;;18.42;8.63;;;9.90;92.40;;;;;;4976035;28;20027;-81
2021/03/24 09:43:51;;;;;;;;;;;10.00;92.30;;;;;;4976132;28;20049;-81
2021/03/24 09:46:47;;;;;;;19.67;9.00;;;10.00;92.60;;;;;;4983735;28;20348;-79
2021/03/24 09:49:34;;;;;;;19.52;8.02;;;10.30;92.80;;;;;;4993551;28;20042;-81
2021/03/24 09:52:22;;;;;;;17.75;8.65;;;10.50;92.70;;;;;;4994649;28;20110;-80
2021/03/24 09:55:09;;;;;;;17.10;8.75;;;10.60;92.60;;;;;;4995018;28;20105;-80
2021/03/24 09:58:27;;;;;;;16.65;8.70;;;10.80;92.50;;;;;;4993739;28;20502;-80
2021/03/24 10:01:01;;;;;;;19.85;8.80;;;10.80;92.10;;;;;;4963072;28;20045;-80
2021/03/24 10:03:36;;;;;;;14.87;7.53;;;10.90;92.50;;;;;;4994993;28;20022;-79
2021/03/24 10:06:07;;;;;;;16.83;7.82;;;11.10;92.80;;;;;;4994980;28;20257;-80
2021/03/24 10:08:44;;;;;;;16.30;7.72;;;11.20;92.60;;;;;;4994690;28;20382;-82
2021/03/24 10:11:33;;;;;;;17.10;8.75;;;11.40;92.50;;;;;;4994598;28;20031;-79
2021/03/24 10:14:10;;;;;;;15.55;7.60;;;11.50;92.60;;;;;;4994621;28;20018;-83
2021/03/24 10:16:43;;;;;;;17.92;7.82;;;11.70;92.60;;;;;;4994477;28;20037;-85
2021/03/24 10:19:31;;;;;;;14.80;7.10;;;11.80;92.50;;;;;;4994475;28;20353;-83
2021/03/24 10:22:42;;;;;;;14.50;6.70;;;11.90;92.30;;;;;;4994544;28;20018;-81
2021/03/24 10:25:11;;;;;;;14.77;7.40;;;12.00;92.40;;;;;;4915178;29;20028;-83
2021/03/24 10:27:45;;;;;;;13.63;6.75;;;12.20;92.90;;;;;;4979705;28;20080;-83
2021/03/24 10:30:13;;;;;;;14.32;6.43;;;12.40;92.80;;;;;;4994339;28;20030;-87
2021/03/24 10:32:58;;;;;;;16.92;7.90;;;12.60;92.70;;;;;;4994591;28;20037;-82
2021/03/24 10:35:36;;;;;;;17.30;7.50;;;12.80;92.80;;;;;;4993085;28;20081;-81
2021/03/24 10:38:12;;;;;;;15.68;7.30;;;13.00;92.90;;;;;;4994196;28;20117;-82
2021/03/24 10:40:42;;;;;;;13.68;6.90;;;13.30;93.10;;;;;;4976749;28;20031;-81
2021/03/24 10:43:19;;;;;;;14.88;7.00;;;13.70;93.80;;;;;;4976919;28;20493;-81
2021/03/24 10:46:09;;;;;;;14.00;7.40;;;14.10;93.90;;;;;;4990544;28;20019;-81
2021/03/24 10:49:03;;;;;;;12.95;6.63;;;14.50;93.90;;;;;;4974668;28;20054;-83
2021/03/24 10:51:56;;;;;;;16.50;8.03;;;14.80;93.30;;;;;;4956574;28;20047;-83
2021/03/24 10:54:29;;;;;;;15.00;7.32;;;15.30;94.20;;;;;;4974993;28;20026;-83
2021/03/24 10:57:05;;;;;;;14.93;6.85;;;15.70;94.20;;;;;;4974990;28;20364;-84
2021/03/24 10:59:34;;;;;;;13.18;6.90;;;16.30;94.60;;;;;;4957194;28;20553;-80
2021/03/24 11:02:22;;;;;;;12.55;6.68;;;16.80;94.50;;;;;;4974573;28;20110;-81
2021/03/24 11:05:43;;;;;;;12.20;7.00;;;17.30;94.40;;;;;;4958565;28;20045;-80
2021/03/24 11:08:20;;;;;;;14.20;7.47;;;17.80;93.90;;;;;;4899454;29;20444;-80
2021/03/24 11:11:07;;;;;;;13.52;7.45;;;18.10;94.10;;;;;;4978741;28;20432;-80
2021/03/24 11:14:10;;;;;;;12.88;6.57;;;18.70;94.90;;;;;;4983518;28;20086;-80
2021/03/24 11:16:39;;;;;;;14.35;6.88;;;19.20;93.80;;;;;;4981883;28;20113;-80
2021/03/24 11:19:25;;;;;;;13.27;7.53;;;19.30;93.50;;;;;;4979303;28;20043;-79
2021/03/24 11:22:30;;;;;;;11.73;6.00;;;19.60;92.60;;;;;;4978293;28;20027;-80
2021/03/24 11:25:05;;;;;;;11.80;6.60;;;19.60;92.30;;;;;;4978368;28;20038;-81
2021/03/24 11:27:45;;;;;;;11.63;6.55;;;19.60;92.80;;;;;;4978178;28;20416;-81
2021/03/24 11:30:37;;;;;;;13.68;7.35;;;19.90;92.60;;;;;;4960914;28;20490;-81
2021/03/24 11:33:06;;;;;;;11.73;6.88;;;19.90;92.60;;;;;;4978245;28;20027;-84
2021/03/24 11:35:43;;;;;;;12.27;7.05;;;20.30;93.40;;;;;;4978232;28;20037;-83
2021/03/24 11:38:25;;;;;;;12.55;7.20;;;20.70;93.80;;;;;;4977950;28;20399;-83
2021/03/24 11:40:57;;;;;;;12.95;7.00;;;21.20;93.90;;;;;;4977977;28;20073;-83
2021/03/24 11:43:38;;;;;;;12.35;7.05;;;21.30;92.20;;;;;;4960501;28;20471;-83
2021/03/24 11:46:43;;;;;;;13.93;8.15;;;21.20;92.00;;;;;;4984083;28;20026;-84
2021/03/24 11:49:54;;;;;;;14.95;8.38;;;21.30;92.60;;;;;;4995205;28;20038;-82
2021/03/24 11:52:33;;;;;;;12.63;7.43;;;21.40;92.50;;;;;;4978286;28;20125;-82
2021/03/24 11:55:22;;;;;;;12.50;7.22;;;21.70;92.80;;;;;;4996196;28;20142;-82
2021/03/24 11:57:57;;;;;;;11.73;6.32;;;21.90;92.60;;;;;;4996188;28;20061;-83
2021/03/24 12:00:41;;;;;;;12.75;7.55;;;22.10;91.80;;;;;;4979635;28;20105;-81
2021/03/24 12:03:10;;;;;;;13.80;7.70;;;21.90;91.70;;;;;;4997118;28;20549;-81
2021/03/24 12:06:01;;;;;;;13.00;7.32;;;22.00;91.90;;;;;;4996982;28;20026;-82
2021/03/24 12:08:36;;;;;;;11.40;6.63;;;22.10;92.20;;;;;;4961582;28;20042;-83
2021/03/24 12:11:26;;;;;;;10.02;6.00;;;22.50;93.10;;;;;;4996950;28;20050;-83
2021/03/24 12:14:15;;;;;;;12.27;6.95;;;23.00;92.90;;;;;;4979116;28;20556;-83
2021/03/24 12:16:56;;;;;;;13.65;7.60;;;22.80;90.80;;;;;;4978773;28;20024;-83
2021/03/24 12:19:42;;;;;;;12.88;7.55;;;22.80;92.20;;;;;;4996740;28;20022;-81
2021/03/24 12:22:29;;;;;;;13.63;7.60;;;22.80;91.50;;;;;;4996759;28;20386;-82
2021/03/24 12:25:10;;;;;;;13.70;7.07;;;23.10;91.90;;;;;;4996617;28;20072;-82
2021/03/24 12:27:42;;;;;;;11.82;6.45;;;23.20;91.20;;;;;;4996613;28;20045;-82
2021/03/24 12:30:45;;;;;;;12.18;6.95;;;23.50;91.90;;;;;;4996438;28;20025;-81
2021/03/24 12:33:14;;;;;;;12.80;7.80;;;23.90;92.20;;;;;;4996636;28;20019;-82
2021/03/24 12:35:45;;;;;;;13.00;7.65;;;23.80;91.20;;;;;;4995403;28;20026;-82
2021/03/24 12:38:14;;;;;;;12.23;6.78;;;23.80;91.40;;;;;;4996443;28;20022;-84
2021/03/24 12:40:59;;;;;;;11.80;7.53;;;24.00;91.60;;;;;;4996383;28;20030;-82
2021/03/24 12:43:34;;;;;;;13.32;7.30;;;23.90;90.20;;;;;;4996408;28;20038;-82
2021/03/24 12:46:21;;;;;;;14.10;7.75;;;24.10;92.50;;;;;;4990570;28;20100;-83
2021/03/24 12:48:51;;;;;;;11.10;6.43;;;24.40;90.70;;;;;;4976440;28;20043;-84
2021/03/24 12:51:28;;;;;;;11.68;7.35;;;24.10;89.60;;;;;;4977065;28;20073;-87
2021/03/24 12:54:03;;;;;;;14.65;7.57;;;24.00;90.70;;;;;;4976671;28;20379;-80
2021/03/24 12:56:53;;;;;;;12.48;7.05;;;24.40;92.40;;;;;;4959095;28;20430;-83
2021/03/24 12:59:50;;;;;;;12.15;7.65;;;25.00;92.00;;;;;;4976483;28;20402;-82
2021/03/24 13:02:41;;;;;;;12.00;6.68;;;25.00;91.80;;;;;;4976450;28;20027;-82
2021/03/24 13:05:23;;;;;;;12.57;7.25;;;25.80;93.00;;;;;;4976587;28;20392;-83
2021/03/24 13:07:57;;;;;;;13.75;7.65;;;26.20;91.80;;;;;;4959485;28;20039;-82
2021/03/24 13:10:44;;;;;;;12.07;6.97;;;26.50;92.10;;;;;;4976684;28;20031;-82
2021/03/24 13:13:31;;;;;;;11.88;6.00;;;26.50;90.60;;;;;;4976428;28;20031;-82
2021/03/24 13:16:03;;;;;;;11.70;6.47;;;26.10;89.00;;;;;;4959406;28;20031;-83
2021/03/24 13:18:37;;;;;;;12.50;7.80;;;25.80;90.10;;;;;;4976182;28;20015;-82
2021/03/24 13:21:29;;;;;;;12.07;7.22;;;25.70;90.30;;;;;;4976283;28;20023;-82
2021/03/24 13:24:01;;;;;;;12.95;8.32;;;25.90;91.30;;;;;;4958659;28;20030;-82
2021/03/24 13:26:36;;;;;;;12.57;7.18;;;26.60;91.90;;;;;;4975780;28;20030;-82
2021/03/24 13:29:05;;;;;;;12.10;7.50;;;26.90;91.10;;;;;;4975570;28;20101;-82
2021/03/24 13:31:49;;;;;;;12.57;7.80;;;27.10;91.20;;;;;;4975948;28;20352;-82
2021/03/24 13:34:38;;;;;;;13.02;7.57;;;27.30;90.40;;;;;;4975996;28;20038;-82
2021/03/24 13:37:05;;;;;;;12.90;8.23;;;27.20;89.00;;;;;;4975646;28;20044;-81
2021/03/24 13:39:40;;;;;;;13.00;7.70;;;27.10;88.10;;;;;;4958958;28;20456;-82
2021/03/24 13:42:33;;;;;;;13.32;7.53;;;27.20;90.50;;;;;;4975711;28;20022;-80